createdAt,value
2019-02-22T00:01:54.561Z,101587.96
2019-02-22T00:04:23.905Z,101588.42
2019-02-22T00:06:53.267Z,101589.75
2019-02-22T00:09:22.461Z,101595.91
2019-02-22T00:11:51.781Z,101592.84
2019-02-22T00:14:20.961Z,101587.05
2019-02-22T00:16:50.173Z,101595.00
2019-02-22T00:19:19.381Z,101596.31
2019-02-22T00:21:48.546Z,101599.36
2019-02-22T00:24:17.741Z,101602.00
2019-02-22T00:26:47.326Z,101604.64
2019-02-22T00:29:16.520Z,101601.52
2019-02-22T00:31:45.702Z,101598.42
2019-02-22T00:34:14.910Z,101608.52
2019-02-22T00:36:44.213Z,101612.94
2019-02-22T00:39:13.478Z,101620.43
2019-02-22T00:41:42.677Z,101612.08
2019-02-22T00:44:11.808Z,101621.75
2019-02-22T00:46:40.985Z,101619.54
2019-02-22T00:49:10.184Z,101621.75
2019-02-22T00:51:39.398Z,101634.06
2019-02-22T00:54:08.577Z,101641.98
2019-02-22T00:56:37.905Z,101653.44
2019-02-22T00:59:07.029Z,101659.60
2019-02-22T01:01:36.209Z,101660.03
2019-02-22T01:04:05.400Z,101662.16
2019-02-22T01:06:34.551Z,101663.05
2019-02-22T01:09:04.495Z,101670.50
2019-02-22T01:11:33.657Z,101674.92
2019-02-22T01:14:02.831Z,101677.16
2019-02-22T01:16:31.983Z,101685.08
2019-02-22T01:19:01.183Z,101683.30
2019-02-22T01:21:30.379Z,101692.48
2019-02-22T01:23:59.513Z,101684.13
2019-02-22T01:26:28.656Z,101682.78
2019-02-22T01:28:57.887Z,101687.54
2019-02-22T01:31:27.005Z,101684.02
2019-02-22T01:33:56.189Z,101698.98
2019-02-22T01:36:25.782Z,101697.70
2019-02-22T01:38:54.998Z,101706.94
2019-02-22T01:41:24.204Z,101707.34
2019-02-22T01:43:53.342Z,101711.33
2019-02-22T01:46:22.529Z,101702.98
2019-02-22T01:48:51.662Z,101705.19
2019-02-22T01:51:20.812Z,101702.52
2019-02-22T01:53:49.966Z,101696.78
2019-02-22T01:56:19.102Z,101695.39
2019-02-22T01:58:49.105Z,101694.08
2019-02-22T02:01:18.374Z,101690.14
2019-02-22T02:03:47.525Z,101693.62
2019-02-22T02:06:16.705Z,101696.28
2019-02-22T02:08:45.898Z,101707.24
2019-02-22T02:11:15.041Z,101714.30
2019-02-22T02:13:44.241Z,101713.88
2019-02-22T02:16:13.399Z,101722.19
2019-02-22T02:18:42.551Z,101722.19
2019-02-22T02:21:11.685Z,101715.59
2019-02-22T02:23:40.839Z,101722.19
2019-02-22T02:26:10.057Z,101715.13
2019-02-22T02:28:39.208Z,101721.77
2019-02-22T02:31:08.346Z,101728.75
2019-02-22T02:33:37.494Z,101741.06
2019-02-22T02:36:06.642Z,101745.45
2019-02-22T02:38:35.808Z,101750.30
2019-02-22T02:41:10.851Z,101757.30
2019-02-22T02:43:35.866Z,101765.18
2019-02-22T02:46:05.077Z,101765.18
2019-02-22T02:48:34.203Z,101760.77
2019-02-22T02:51:03.378Z,101770.00
2019-02-22T02:53:32.554Z,101768.22
2019-02-22T02:56:01.747Z,101764.25
2019-02-22T02:58:30.904Z,101758.98
2019-02-22T03:01:00.036Z,101755.37
2019-02-22T03:03:29.296Z,101775.67
2019-02-22T03:06:12.662Z,101781.41
2019-02-22T03:08:41.810Z,101777.45
2019-02-22T03:11:20.342Z,101786.69
2019-02-22T03:13:41.867Z,101791.50
2019-02-22T03:16:10.987Z,101787.08
2019-02-22T03:18:40.137Z,101792.79
2019-02-22T03:21:09.285Z,101790.11
2019-02-22T03:23:38.491Z,101787.44
2019-02-22T03:26:07.628Z,101788.77
2019-02-22T03:28:36.827Z,101804.62
2019-02-22T03:31:05.944Z,101794.07
2019-02-22T03:33:35.080Z,101804.17
2019-02-22T03:36:04.270Z,101813.01
2019-02-22T03:38:33.399Z,101817.83
2019-02-22T03:41:02.624Z,101822.17
2019-02-22T03:43:31.803Z,101809.84
2019-02-22T03:46:00.922Z,101815.58
2019-02-22T03:48:30.116Z,101818.64
2019-02-22T03:50:59.268Z,101831.84
2019-02-22T03:53:35.025Z,101835.30
2019-02-22T03:56:04.282Z,101838.36
2019-02-22T03:58:33.562Z,101833.09
2019-02-22T04:01:02.680Z,101830.84
2019-02-22T04:03:31.804Z,101829.55
2019-02-22T04:06:00.970Z,101831.38
2019-02-22T04:08:30.127Z,101835.27
2019-02-22T04:10:59.271Z,101845.39
2019-02-22T04:13:28.430Z,101842.28
2019-02-22T04:15:57.591Z,101854.16
2019-02-22T04:18:26.864Z,101854.16
2019-02-22T04:20:56.031Z,101851.06
2019-02-22T04:23:25.141Z,101849.73
2019-02-22T04:25:54.313Z,101853.73
2019-02-22T04:28:23.514Z,101857.73
2019-02-22T04:30:52.680Z,101852.41
2019-02-22T04:33:21.848Z,101860.76
2019-02-22T04:35:51.071Z,101850.63
2019-02-22T04:38:20.194Z,101858.55
2019-02-22T04:40:49.438Z,101859.83
2019-02-22T04:43:18.608Z,101862.50
2019-02-22T04:45:47.771Z,101862.47
2019-02-22T04:48:19.987Z,101864.64
2019-02-22T04:50:49.126Z,101868.59
2019-02-22T04:53:18.256Z,101867.24
2019-02-22T04:55:47.471Z,101869.88
2019-02-22T04:58:16.626Z,101866.42
2019-02-22T05:00:45.772Z,101872.09
2019-02-22T05:03:14.942Z,101880.44
2019-02-22T05:05:44.116Z,101876.47
2019-02-22T05:08:13.265Z,101877.41
2019-02-22T05:10:42.396Z,101879.19
2019-02-22T05:13:11.587Z,101887.06
2019-02-22T05:15:40.842Z,101887.95
2019-02-22T05:18:10.084Z,101882.72
2019-02-22T05:20:39.334Z,101887.88
2019-02-22T05:23:08.507Z,101893.59
2019-02-22T05:25:37.673Z,101891.37
2019-02-22T05:28:06.880Z,101896.23
2019-02-22T05:30:36.637Z,101890.05
2019-02-22T05:33:05.821Z,101903.67
2019-02-22T05:35:35.017Z,101911.16
2019-02-22T05:38:04.161Z,101905.03
2019-02-22T05:40:33.317Z,101910.70
2019-02-22T05:43:02.473Z,101909.84
2019-02-22T05:45:31.634Z,101919.12
2019-02-22T05:48:00.779Z,101919.55
2019-02-22T05:50:29.947Z,101923.46
2019-02-22T05:52:59.146Z,101918.58
2019-02-22T05:55:30.344Z,101919.86
2019-02-22T05:57:59.477Z,101925.98
2019-02-22T06:00:28.711Z,101922.41
2019-02-22T06:02:57.836Z,101930.33
2019-02-22T06:05:27.083Z,101929.86
2019-02-22T06:07:56.269Z,101922.84
2019-02-22T06:10:25.409Z,101928.89
2019-02-22T06:12:54.571Z,101938.55
2019-02-22T06:15:23.742Z,101942.13
2019-02-22T06:17:52.936Z,101942.13
2019-02-22T06:20:22.082Z,101950.42
2019-02-22T06:22:51.222Z,101954.38
2019-02-22T06:25:20.384Z,101955.23
2019-02-22T06:27:49.591Z,101968.42
2019-02-22T06:30:18.724Z,101963.19
2019-02-22T06:32:48.025Z,101970.20
2019-02-22T06:35:17.204Z,101978.59
2019-02-22T06:37:46.363Z,101980.38
2019-02-22T06:40:15.511Z,101992.71
2019-02-22T06:42:46.074Z,101991.39
2019-02-22T06:45:15.656Z,101993.30
2019-02-22T06:47:44.832Z,101998.92
2019-02-22T06:50:13.958Z,102000.24
2019-02-22T06:52:43.123Z,102003.34
2019-02-22T06:55:12.266Z,102005.98
2019-02-22T06:57:41.431Z,102009.09
2019-02-22T07:00:11.890Z,102013.98
2019-02-22T07:02:41.025Z,102016.58
2019-02-22T07:05:10.201Z,102025.38
2019-02-22T07:07:39.366Z,102034.66
2019-02-22T07:10:09.318Z,102043.00
2019-02-22T07:12:56.535Z,102043.94
2019-02-22T07:15:18.932Z,102053.59
2019-02-22T07:17:48.069Z,102057.13
2019-02-22T07:20:17.224Z,102059.77
2019-02-22T07:22:46.419Z,102058.45
2019-02-22T07:25:15.613Z,102061.09
2019-02-22T07:27:44.796Z,102071.26
2019-02-22T07:30:13.951Z,102062.92
2019-02-22T07:32:43.166Z,102074.37
2019-02-22T07:35:14.305Z,102084.45
2019-02-22T07:37:43.176Z,102082.28
2019-02-22T07:40:12.326Z,102086.23
2019-02-22T07:42:41.501Z,102090.66
2019-02-22T07:45:11.778Z,102100.33
2019-02-22T07:47:40.965Z,102100.33
2019-02-22T07:50:11.536Z,102107.81
2019-02-22T07:52:40.692Z,102105.17
2019-02-22T07:55:10.650Z,102104.24
2019-02-22T07:57:40.349Z,102108.20
2019-02-22T08:00:12.393Z,102117.39
2019-02-22T08:02:41.611Z,102119.09
2019-02-22T08:05:10.751Z,102129.22
2019-02-22T08:07:39.967Z,102128.70
2019-02-22T08:10:09.125Z,102137.05
2019-02-22T08:12:38.385Z,102138.87
2019-02-22T08:15:08.617Z,102139.73
2019-02-22T08:17:37.839Z,102142.88
2019-02-22T08:20:07.329Z,102149.86
2019-02-22T08:22:36.457Z,102151.17
2019-02-22T08:25:05.607Z,102162.25
2019-02-22T08:27:34.876Z,102163.99
2019-02-22T08:30:04.452Z,102171.91
2019-02-22T08:32:33.636Z,102171.91
2019-02-22T08:35:02.764Z,102165.69
2019-02-22T08:37:31.910Z,102165.31
2019-02-22T08:40:02.267Z,102184.72
2019-02-22T08:42:31.901Z,102184.34
2019-02-22T08:45:01.076Z,102185.70
2019-02-22T08:47:30.232Z,102185.29
2019-02-22T08:49:59.356Z,102195.89
2019-02-22T08:52:28.544Z,102203.85
2019-02-22T08:54:57.686Z,102203.47
2019-02-22T08:57:26.875Z,102210.54
2019-02-22T08:59:56.042Z,102208.41
2019-02-22T09:02:25.203Z,102214.21
2019-02-22T09:04:54.373Z,102223.96
2019-02-22T09:07:23.526Z,102220.09
2019-02-22T09:09:52.662Z,102227.55
2019-02-22T09:12:21.853Z,102226.31
2019-02-22T09:14:51.023Z,102236.45
2019-02-22T09:17:20.179Z,102237.39
2019-02-22T09:19:49.341Z,102238.42
2019-02-22T09:22:22.871Z,102243.84
2019-02-22T09:24:49.387Z,102245.33
2019-02-22T09:27:18.527Z,102239.68
2019-02-22T09:29:58.163Z,102246.45
2019-02-22T09:32:18.554Z,102243.91
2019-02-22T09:34:48.118Z,102248.55
2019-02-22T09:37:17.291Z,102246.84
2019-02-22T09:39:46.479Z,102251.31
2019-02-22T09:42:15.630Z,102252.16
2019-02-22T09:44:44.798Z,102252.25
2019-02-22T09:47:13.994Z,102256.30
2019-02-22T09:49:43.184Z,102260.34
2019-02-22T09:52:12.356Z,102265.25
2019-02-22T09:54:41.502Z,102268.83
2019-02-22T09:57:10.682Z,102279.14
2019-02-22T09:59:39.836Z,102275.65
2019-02-22T10:02:09.012Z,102280.33
2019-02-22T10:04:38.217Z,102277.60
2019-02-22T10:07:07.391Z,102280.72
2019-02-22T10:09:36.585Z,102287.83
2019-02-22T10:12:05.763Z,102292.14
2019-02-22T10:14:35.026Z,102287.23
2019-02-22T10:17:04.188Z,102288.17
2019-02-22T10:19:33.357Z,102294.22
2019-02-22T10:22:02.520Z,102295.45
2019-02-22T10:24:31.702Z,102301.59
2019-02-22T10:27:00.847Z,102306.11
2019-02-22T10:29:30.031Z,102304.66
2019-02-22T10:31:59.208Z,102311.87
2019-02-22T10:34:28.409Z,102312.33
2019-02-22T10:36:57.524Z,102322.55
2019-02-22T10:39:26.676Z,102323.83
2019-02-22T10:41:55.832Z,102324.59
2019-02-22T10:44:25.037Z,102324.03
2019-02-22T10:46:54.183Z,102322.71
2019-02-22T10:49:23.372Z,102331.57
2019-02-22T10:51:52.546Z,102343.64
2019-02-22T10:54:21.694Z,102342.36
2019-02-22T10:56:50.849Z,102349.39
2019-02-22T10:59:20.038Z,102338.67
2019-02-22T11:01:49.180Z,102349.38
2019-02-22T11:04:18.316Z,102357.23
2019-02-22T11:06:47.482Z,102352.75
2019-02-22T11:09:17.916Z,102359.83
2019-02-22T11:11:47.131Z,102358.03
2019-02-22T11:14:16.307Z,102363.22
2019-02-22T11:16:45.587Z,102367.75
2019-02-22T11:19:14.726Z,102366.05
2019-02-22T11:21:43.901Z,102365.24
2019-02-22T11:24:13.093Z,102365.37
2019-02-22T11:26:42.229Z,102363.59
2019-02-22T11:29:11.365Z,102358.26
2019-02-22T11:31:40.536Z,102359.95
2019-02-22T11:34:09.697Z,102364.44
2019-02-22T11:36:38.931Z,102367.69
2019-02-22T11:39:08.241Z,102364.06
2019-02-22T11:41:37.407Z,102366.23
2019-02-22T11:44:06.555Z,102373.26
2019-02-22T11:46:35.726Z,102373.69
2019-02-22T11:49:04.902Z,102379.44
2019-02-22T11:51:34.086Z,102380.11
2019-02-22T11:54:03.253Z,102388.03
2019-02-22T11:56:32.398Z,102386.66
2019-02-22T11:59:01.532Z,102380.67
2019-02-22T12:01:30.702Z,102383.23
2019-02-22T12:03:59.942Z,102386.81
2019-02-22T12:06:29.053Z,102385.11
2019-02-22T12:08:58.205Z,102380.77
2019-02-22T12:11:27.416Z,102384.83
2019-02-22T12:13:56.562Z,102386.76
2019-02-22T12:16:25.747Z,102387.22
2019-02-22T12:18:54.887Z,102387.18
2019-02-22T12:21:24.078Z,102390.43
2019-02-22T12:23:53.298Z,102401.52
2019-02-22T12:26:22.437Z,102401.98
2019-02-22T12:28:51.622Z,102409.77
2019-02-22T12:31:20.770Z,102404.62
2019-02-22T12:33:49.970Z,102408.12
2019-02-22T12:36:19.075Z,102407.50
2019-02-22T12:38:48.259Z,102403.41
2019-02-22T12:41:17.425Z,102407.51
2019-02-22T12:43:46.630Z,102397.03
2019-02-22T12:46:15.835Z,102404.91
2019-02-22T12:48:45.250Z,102403.64
2019-02-22T12:51:14.460Z,102401.52
2019-02-22T12:53:44.047Z,102415.34
2019-02-22T12:56:13.256Z,102418.88
2019-02-22T12:58:42.894Z,102420.80
2019-02-22T13:01:12.100Z,102426.84
2019-02-22T13:03:41.274Z,102424.87
2019-02-22T13:06:10.434Z,102432.64
2019-02-22T13:08:39.597Z,102431.95
2019-02-22T13:11:08.756Z,102439.96
2019-02-22T13:13:37.928Z,102451.30
2019-02-22T13:16:07.089Z,102452.44
2019-02-22T13:18:36.284Z,102466.18
2019-02-22T13:21:05.468Z,102473.30
2019-02-22T13:23:34.649Z,102477.25
2019-02-22T13:26:03.813Z,102477.25
2019-02-22T13:28:35.370Z,102485.16
2019-02-22T13:31:04.506Z,102488.17
2019-02-22T13:33:33.656Z,102490.13
2019-02-22T13:36:02.908Z,102486.28
2019-02-22T13:38:32.046Z,102489.66
2019-02-22T13:41:01.191Z,102479.42
2019-02-22T13:43:30.355Z,102488.30
2019-02-22T13:45:59.563Z,102498.22
2019-02-22T13:48:28.715Z,102509.27
2019-02-22T13:50:57.891Z,102508.05
2019-02-22T13:53:27.044Z,102503.98
2019-02-22T13:55:56.185Z,102503.77
2019-02-22T13:58:25.395Z,102510.55
2019-02-22T14:00:54.600Z,102513.02
2019-02-22T14:03:23.885Z,102521.46
2019-02-22T14:05:53.040Z,102531.80
2019-02-22T14:08:22.225Z,102527.36
2019-02-22T14:10:51.412Z,102522.60
2019-02-22T14:13:20.618Z,102523.45
2019-02-22T14:15:49.787Z,102527.83
2019-02-22T14:18:18.998Z,102530.16
2019-02-22T14:20:48.622Z,102534.23
2019-02-22T14:23:17.955Z,102526.97
2019-02-22T14:25:47.182Z,102532.72
2019-02-22T14:28:16.345Z,102534.87
2019-02-22T14:30:45.548Z,102537.92
2019-02-22T14:33:14.687Z,102543.94
2019-02-22T14:35:43.970Z,102543.52
2019-02-22T14:38:13.274Z,102548.40
2019-02-22T14:40:42.708Z,102553.80
2019-02-22T14:43:16.472Z,102553.91
2019-02-22T14:45:49.611Z,102555.32
2019-02-22T14:48:13.653Z,102551.91
2019-02-22T14:50:42.826Z,102559.09
2019-02-22T14:53:19.475Z,102560.71
2019-02-22T14:55:42.887Z,102563.97
2019-02-22T14:58:12.129Z,102570.64
2019-02-22T15:00:41.297Z,102566.09
2019-02-22T15:03:10.473Z,102565.50
2019-02-22T15:05:39.655Z,102568.41
2019-02-22T15:08:08.814Z,102564.94
2019-02-22T15:10:38.015Z,102554.84
2019-02-22T15:13:07.161Z,102557.94
2019-02-22T15:16:00.874Z,102563.84
2019-02-22T15:18:26.257Z,102567.98
2019-02-22T15:20:55.420Z,102568.47
2019-02-22T15:23:24.616Z,102564.26
2019-02-22T15:25:53.843Z,102572.02
2019-02-22T15:28:23.097Z,102567.23
2019-02-22T15:30:52.357Z,102568.64
2019-02-22T15:33:21.473Z,102568.72
2019-02-22T15:35:50.669Z,102580.05
2019-02-22T15:38:19.848Z,102571.62
2019-02-22T15:40:49.090Z,102570.83
2019-02-22T15:43:18.294Z,102576.44
2019-02-22T15:45:47.661Z,102578.52
2019-02-22T15:48:25.613Z,102569.73
2019-02-22T15:50:54.840Z,102575.41
2019-02-22T15:53:24.185Z,102574.02
2019-02-22T15:55:53.349Z,102577.16
2019-02-22T15:58:22.525Z,102574.95
2019-02-22T16:00:51.777Z,102577.92
2019-02-22T16:03:20.965Z,102585.88
2019-02-22T16:05:50.131Z,102587.75
2019-02-22T16:08:19.315Z,102593.08
2019-02-22T16:10:48.611Z,102594.39
2019-02-22T16:13:17.755Z,102594.25
2019-02-22T16:15:47.163Z,102595.98
2019-02-22T16:18:16.325Z,102594.33
2019-02-22T16:20:45.541Z,102601.66
2019-02-22T16:23:14.741Z,102595.97
2019-02-22T16:25:43.936Z,102601.95
2019-02-22T16:28:15.669Z,102605.75
2019-02-22T16:30:43.987Z,102607.11
2019-02-22T16:33:13.480Z,102616.45
2019-02-22T16:35:42.718Z,102613.08
2019-02-22T16:38:11.895Z,102616.53
2019-02-22T16:40:41.080Z,102617.43
2019-02-22T16:43:10.242Z,102624.41
2019-02-22T16:45:39.416Z,102620.25
2019-02-22T16:48:08.610Z,102620.59
2019-02-22T16:50:37.801Z,102621.16
2019-02-22T16:53:07.028Z,102626.76
2019-02-22T16:55:36.614Z,102629.31
2019-02-22T16:58:05.840Z,102634.64
2019-02-22T17:00:35.051Z,102639.33
2019-02-22T17:03:04.429Z,102638.77
2019-02-22T17:05:33.653Z,102641.59
2019-02-22T17:08:02.857Z,102643.80
2019-02-22T17:10:32.233Z,102649.63
2019-02-22T17:13:01.425Z,102651.46
2019-02-22T17:15:30.649Z,102649.81
2019-02-22T17:18:01.613Z,102654.31
2019-02-22T17:20:30.843Z,102661.78
2019-02-22T17:23:00.067Z,102669.77
2019-02-22T17:25:31.308Z,102673.45
2019-02-22T17:28:00.479Z,102672.96
2019-02-22T17:30:29.653Z,102677.39
2019-02-22T17:32:58.837Z,102675.73
2019-02-22T17:35:28.048Z,102680.43
2019-02-22T17:37:57.222Z,102680.77
2019-02-22T17:40:26.552Z,102680.23
2019-02-22T17:42:55.741Z,102679.59
2019-02-22T17:45:25.027Z,102680.94
2019-02-22T17:47:54.243Z,102682.16
2019-02-22T17:50:23.540Z,102678.66
2019-02-22T17:52:52.876Z,102686.30
2019-02-22T17:55:22.106Z,102689.41
2019-02-22T17:57:51.299Z,102695.00
2019-02-22T18:00:21.347Z,102694.07
2019-02-22T18:02:54.952Z,102696.55
2019-02-22T18:05:24.129Z,102695.53
2019-02-22T18:07:53.289Z,102699.05
2019-02-22T18:10:22.496Z,102705.81
2019-02-22T18:12:51.645Z,102703.60
2019-02-22T18:15:20.867Z,102706.39
2019-02-22T18:17:50.058Z,102704.98
2019-02-22T18:20:19.308Z,102719.42
2019-02-22T18:22:48.535Z,102723.48
2019-02-22T18:25:17.705Z,102721.52
2019-02-22T18:27:46.912Z,102724.94
2019-02-22T18:30:16.392Z,102721.77
2019-02-22T18:32:45.653Z,102720.05
2019-02-22T18:35:14.831Z,102727.45
2019-02-22T18:37:44.042Z,102728.43
2019-02-22T18:40:13.783Z,102732.69
2019-02-22T18:42:42.968Z,102738.77
2019-02-22T18:45:12.168Z,102749.80
2019-02-22T18:47:41.360Z,102753.27
2019-02-22T18:50:10.993Z,102757.26
2019-02-22T18:52:40.245Z,102760.22
2019-02-22T18:55:09.811Z,102763.17
2019-02-22T18:57:38.972Z,102757.37
2019-02-22T19:00:10.584Z,102750.62
2019-02-22T19:02:40.431Z,102756.84
2019-02-22T19:05:10.210Z,102760.78
2019-02-22T19:07:40.314Z,102758.24
2019-02-22T19:10:11.145Z,102750.95
2019-02-22T19:12:40.441Z,102753.98
2019-02-22T19:15:11.381Z,102766.95
2019-02-22T19:17:40.718Z,102772.73
2019-02-22T19:20:11.947Z,102770.20
2019-02-22T19:22:41.194Z,102762.01
2019-02-22T19:25:10.431Z,102758.59
2019-02-22T19:27:39.856Z,102757.27
2019-02-22T19:30:12.059Z,102763.16
2019-02-22T19:32:41.564Z,102776.10
2019-02-22T19:35:11.298Z,102777.92
2019-02-22T19:37:41.747Z,102775.70
2019-02-22T19:40:16.035Z,102774.89
2019-02-22T19:42:46.260Z,102774.98
2019-02-22T19:45:16.540Z,102770.70
2019-02-22T19:47:46.318Z,102774.23
2019-02-22T19:50:15.643Z,102764.97
2019-02-22T19:52:45.144Z,102757.59
2019-02-22T19:55:15.530Z,102761.68
2019-02-22T19:57:44.892Z,102755.36
2019-02-22T20:00:16.091Z,102767.98
2019-02-22T20:02:45.541Z,102765.92
2019-02-22T20:05:14.954Z,102771.48
2019-02-22T20:07:44.756Z,102773.28
2019-02-22T20:10:18.108Z,102770.08
2019-02-22T20:12:46.652Z,102769.00
2019-02-22T20:15:16.820Z,102774.27
2019-02-22T20:17:54.321Z,102777.53
2019-02-22T20:20:17.432Z,102781.20
2019-02-22T20:22:47.188Z,102777.77
2019-02-22T20:25:16.620Z,102770.67
2019-02-22T20:27:45.991Z,102764.27
2019-02-22T20:30:15.758Z,102761.78
2019-02-22T20:32:44.860Z,102751.42
2019-02-22T20:35:16.313Z,102742.98
2019-02-22T20:37:52.844Z,102732.50
2019-02-22T20:40:18.035Z,102730.03
2019-02-22T20:42:47.249Z,102727.91
2019-02-22T20:45:16.933Z,102728.55
2019-02-22T20:47:46.973Z,102732.48
2019-02-22T20:50:16.279Z,102737.05
2019-02-22T20:52:45.639Z,102753.08
2019-02-22T20:55:14.829Z,102759.22
2019-02-22T20:57:44.052Z,102764.05
2019-02-22T21:00:15.839Z,102765.71
2019-02-22T21:02:45.139Z,102775.87
2019-02-22T21:05:14.470Z,102778.67
2019-02-22T21:07:43.920Z,102790.14
2019-02-22T21:10:14.867Z,102795.87
2019-02-22T21:13:09.796Z,102799.63
2019-02-22T21:15:56.703Z,102795.14
2019-02-22T21:18:49.706Z,102798.27
2019-02-22T21:21:26.078Z,102808.02
2019-02-22T21:23:57.537Z,102810.00
2019-02-22T21:26:26.897Z,102811.80
2019-02-22T21:28:56.195Z,102803.45
2019-02-22T21:31:26.710Z,102803.62
2019-02-22T21:33:56.126Z,102808.69
2019-02-22T21:36:25.293Z,102801.95
2019-02-22T21:38:54.483Z,102805.34
2019-02-22T21:41:23.622Z,102798.88
2019-02-22T21:43:52.915Z,102796.98
2019-02-22T21:46:22.182Z,102795.23
2019-02-22T21:48:51.410Z,102804.75
2019-02-22T21:51:20.735Z,102794.19
2019-02-22T21:53:49.879Z,102798.67
2019-02-22T21:56:19.056Z,102801.29
2019-02-22T21:58:48.958Z,102806.52
2019-02-22T22:01:18.325Z,102803.09
2019-02-22T22:03:47.460Z,102804.41
2019-02-22T22:06:16.661Z,102816.33
2019-02-22T22:08:45.852Z,102822.48
2019-02-22T22:11:15.034Z,102833.55
2019-02-22T22:13:44.381Z,102834.71
2019-02-22T22:16:13.677Z,102831.24
2019-02-22T22:18:42.834Z,102824.20
2019-02-22T22:21:12.062Z,102834.67
2019-02-22T22:23:41.253Z,102836.34
2019-02-22T22:26:11.309Z,102753.76
2019-02-22T22:28:40.632Z,102830.28
2019-02-22T22:31:09.790Z,102836.75
2019-02-22T22:33:38.994Z,102832.85
2019-02-22T22:36:08.214Z,102826.22
2019-02-22T22:38:37.397Z,102837.06
2019-02-22T22:41:06.585Z,102843.20
2019-02-22T22:43:35.763Z,102835.34
2019-02-22T22:46:05.050Z,102841.22
2019-02-22T22:48:36.581Z,102841.22
2019-02-22T22:51:05.955Z,102835.98
2019-02-22T22:53:35.147Z,102834.91
2019-02-22T22:56:04.316Z,102837.47
2019-02-22T22:58:33.514Z,102844.08
2019-02-22T23:01:11.861Z,102852.33
2019-02-22T23:03:41.151Z,102843.84
2019-02-22T23:06:11.646Z,102850.06
2019-02-22T23:08:40.876Z,102861.09
2019-02-22T23:11:10.132Z,102864.61
2019-02-22T23:13:39.317Z,102859.66
2019-02-22T23:16:08.520Z,102869.41
2019-02-22T23:18:37.779Z,102869.36
2019-02-22T23:21:06.948Z,102871.03
2019-02-22T23:23:36.128Z,102873.48
2019-02-22T23:26:05.330Z,102873.55
2019-02-22T23:28:34.509Z,102879.52
2019-02-22T23:31:03.711Z,102872.79
2019-02-22T23:33:33.058Z,102869.80
2019-02-22T23:36:02.358Z,102873.41
2019-02-22T23:38:31.510Z,102874.36
2019-02-22T23:41:00.752Z,102882.07
2019-02-22T23:43:30.254Z,102867.80
2019-02-22T23:45:59.795Z,102863.19
2019-02-22T23:48:28.935Z,102869.86
2019-02-22T23:50:58.335Z,102874.59
2019-02-22T23:53:27.533Z,102871.65
2019-02-22T23:55:56.813Z,102868.66
2019-02-22T23:58:26.165Z,102873.08
